createdAt,value
2022-10-05T00:00:44.367Z,48
2022-10-05T00:06:24.726Z,46
2022-10-05T00:12:05.013Z,44
2022-10-05T00:17:45.493Z,44
2022-10-05T00:23:25.622Z,56
2022-10-05T00:29:06.245Z,58
2022-10-05T00:34:46.341Z,54
2022-10-05T00:40:26.580Z,48
2022-10-05T00:46:07.335Z,44
2022-10-05T00:51:48.531Z,44
2022-10-05T00:57:28.884Z,52
2022-10-05T01:03:09.677Z,46
2022-10-05T01:08:50.405Z,46
2022-10-05T01:14:30.938Z,52
2022-10-05T01:20:11.356Z,52
2022-10-05T01:25:51.889Z,44
2022-10-05T01:31:32.603Z,44
2022-10-05T01:37:13.423Z,46
2022-10-05T01:42:53.845Z,58
2022-10-05T01:48:34.231Z,54
2022-10-05T01:54:14.421Z,44
2022-10-05T01:59:54.795Z,36
2022-10-05T02:05:35.189Z,48
2022-10-05T02:11:15.844Z,44
2022-10-05T02:22:37.078Z,54
2022-10-05T02:28:17.573Z,46
2022-10-05T02:33:58.298Z,38
2022-10-05T02:39:38.910Z,56
2022-10-05T02:45:19.949Z,48
2022-10-05T02:51:00.608Z,42
2022-10-05T02:56:40.819Z,46
2022-10-05T03:02:22.145Z,56
2022-10-05T03:08:04.021Z,54
2022-10-05T03:13:45.325Z,56
2022-10-05T03:19:26.929Z,52
2022-10-05T03:25:08.085Z,56
2022-10-05T03:30:48.490Z,44
2022-10-05T03:36:29.089Z,48
2022-10-05T03:42:10.302Z,56
2022-10-05T03:47:50.490Z,54
2022-10-05T03:53:30.746Z,54
2022-10-05T03:59:11.778Z,48
2022-10-05T04:04:52.314Z,52
2022-10-05T04:10:35.263Z,44
2022-10-05T04:16:16.586Z,46
2022-10-05T04:21:56.626Z,56
2022-10-05T04:27:37.159Z,48
2022-10-05T04:33:17.976Z,50
2022-10-05T04:38:57.950Z,56
2022-10-05T04:44:38.539Z,52
2022-10-05T04:50:18.884Z,54
2022-10-05T04:55:59.197Z,48
2022-10-05T05:01:39.359Z,52
2022-10-05T05:07:20.726Z,60
2022-10-05T05:13:01.025Z,46
2022-10-05T05:18:41.394Z,52
2022-10-05T05:24:24.761Z,54
2022-10-05T05:30:05.333Z,52
2022-10-05T05:35:45.591Z,48
2022-10-05T05:41:28.888Z,42
2022-10-05T05:47:11.286Z,46
2022-10-05T05:52:53.570Z,56
2022-10-05T05:58:34.102Z,56
2022-10-05T06:04:14.954Z,44
2022-10-05T06:09:55.091Z,42
2022-10-05T06:21:16.546Z,48
2022-10-05T06:26:56.883Z,56
2022-10-05T06:32:37.323Z,38
2022-10-05T06:38:20.824Z,44
2022-10-05T06:44:01.770Z,50
2022-10-05T06:49:42.679Z,54
2022-10-05T06:55:22.801Z,46
2022-10-05T07:01:03.353Z,44
2022-10-05T07:06:44.214Z,44
2022-10-05T07:12:25.119Z,50
2022-10-05T07:18:06.536Z,56
2022-10-05T07:23:47.934Z,44
2022-10-05T07:29:28.632Z,56
2022-10-05T07:35:09.238Z,58
2022-10-05T07:40:49.971Z,60
2022-10-05T07:46:30.921Z,44
2022-10-05T07:52:14.463Z,46
2022-10-05T07:57:55.009Z,52
2022-10-05T08:03:35.179Z,56
2022-10-05T08:09:14.828Z,48
2022-10-05T08:14:58.259Z,54
2022-10-05T08:20:38.447Z,56
2022-10-05T08:32:02.813Z,52
2022-10-05T08:37:43.185Z,48
2022-10-05T08:43:23.064Z,58
2022-10-05T08:49:03.519Z,46
2022-10-05T08:54:43.890Z,52
2022-10-05T09:00:24.129Z,54
2022-10-05T09:06:04.940Z,44
2022-10-05T09:11:46.636Z,48
2022-10-05T09:17:29.335Z,58
2022-10-05T09:23:09.397Z,52
2022-10-05T09:28:50.053Z,56
2022-10-05T09:34:31.678Z,44
2022-10-05T09:40:12.129Z,54
2022-10-05T09:45:53.094Z,56
2022-10-05T09:51:33.880Z,28
2022-10-05T09:57:14.644Z,28
2022-10-05T10:02:56.303Z,44
2022-10-05T10:08:37.084Z,40
2022-10-05T10:14:18.148Z,2
2022-10-05T10:20:01.824Z,0
2022-10-05T10:25:45.544Z,0
2022-10-05T10:31:28.496Z,0
2022-10-05T10:37:09.648Z,0
2022-10-05T10:42:52.263Z,0
2022-10-05T10:48:32.903Z,2
2022-10-05T10:54:13.308Z,0
2022-10-05T10:59:53.486Z,0
2022-10-05T11:05:33.696Z,0
2022-10-05T11:11:16.590Z,2
2022-10-05T11:16:56.676Z,0
2022-10-05T11:22:40.428Z,2
2022-10-05T11:28:29.890Z,0
2022-10-05T11:34:13.689Z,2
2022-10-05T11:39:54.018Z,0
2022-10-05T11:45:34.662Z,2
2022-10-05T11:51:15.461Z,0
2022-10-05T11:57:01.669Z,0
2022-10-05T12:02:45.946Z,0
2022-10-05T12:08:27.225Z,2
2022-10-05T12:14:09.827Z,0
2022-10-05T12:19:54.456Z,0
2022-10-05T12:25:34.754Z,2
2022-10-05T12:31:16.070Z,0
2022-10-05T12:37:06.116Z,2
2022-10-05T12:42:47.037Z,2
2022-10-05T12:48:33.823Z,0
2022-10-05T12:54:29.207Z,0
2022-10-05T13:00:56.082Z,0
2022-10-05T13:06:44.398Z,0
2022-10-05T13:12:30.032Z,0
2022-10-05T13:18:15.724Z,4
2022-10-05T13:23:59.289Z,0
2022-10-05T13:29:40.215Z,0
2022-10-05T13:35:21.314Z,0
2022-10-05T13:41:03.095Z,0
2022-10-05T13:46:46.127Z,0
2022-10-05T13:52:26.823Z,2
2022-10-05T13:58:10.875Z,2
2022-10-05T14:03:58.900Z,0
2022-10-05T14:09:41.889Z,6
2022-10-05T14:21:03.513Z,2
2022-10-05T14:26:43.771Z,56
2022-10-05T14:32:23.847Z,56
2022-10-05T14:38:04.215Z,58
2022-10-05T14:43:44.494Z,52
2022-10-05T14:49:25.175Z,44
2022-10-05T14:55:05.629Z,48
2022-10-05T15:00:49.554Z,52
2022-10-05T15:06:33.511Z,56
2022-10-05T15:12:13.839Z,56
2022-10-05T15:17:54.186Z,48
2022-10-05T15:23:34.650Z,52
2022-10-05T15:29:15.036Z,46
2022-10-05T15:34:55.204Z,58
2022-10-05T15:40:36.002Z,48
2022-10-05T15:46:19.662Z,48
2022-10-05T15:51:59.793Z,44
2022-10-05T15:57:43.057Z,60
2022-10-05T16:03:26.216Z,48
2022-10-05T16:14:47.631Z,58
2022-10-05T16:20:27.777Z,48
2022-10-05T16:26:08.120Z,44
2022-10-05T16:31:48.492Z,50
2022-10-05T16:37:29.248Z,54
2022-10-05T16:43:09.571Z,48
2022-10-05T16:48:49.638Z,48
2022-10-05T16:54:29.887Z,44
2022-10-05T17:00:17.168Z,48
2022-10-05T17:05:59.756Z,58
2022-10-05T17:11:39.787Z,56
2022-10-05T17:17:25.649Z,44
2022-10-05T17:23:06.975Z,68
2022-10-05T17:28:47.909Z,56
2022-10-05T17:34:28.198Z,48
2022-10-05T17:40:08.554Z,54
2022-10-05T17:45:49.222Z,48
2022-10-05T17:51:30.035Z,48
2022-10-05T17:57:13.724Z,52
2022-10-05T18:08:38.474Z,54
2022-10-05T18:14:29.577Z,56
2022-10-05T18:20:09.719Z,48
2022-10-05T18:25:50.126Z,48
2022-10-05T18:31:32.801Z,46
2022-10-05T18:37:13.381Z,68
2022-10-05T18:42:53.825Z,54
2022-10-05T18:48:54.400Z,58
2022-10-05T18:54:41.000Z,48
2022-10-05T19:00:23.560Z,52
2022-10-05T19:06:14.401Z,58
2022-10-05T19:11:57.886Z,50
2022-10-05T19:17:41.094Z,60
2022-10-05T19:23:25.018Z,56
2022-10-05T19:29:10.219Z,56
2022-10-05T19:40:40.205Z,56
2022-10-05T19:46:23.839Z,48
2022-10-05T19:52:09.669Z,50
2022-10-05T19:57:52.239Z,52
2022-10-05T20:03:33.185Z,56
2022-10-05T20:09:21.978Z,52
2022-10-05T20:15:08.651Z,56
2022-10-05T20:20:54.927Z,48
2022-10-05T20:26:42.614Z,52
2022-10-05T20:32:31.649Z,46
2022-10-05T20:38:19.766Z,48
2022-10-05T20:44:02.798Z,58
2022-10-05T20:49:43.380Z,48
2022-10-05T20:55:30.170Z,48
2022-10-05T21:01:14.777Z,56
2022-10-05T21:07:05.988Z,62
2022-10-05T21:12:56.320Z,56
2022-10-05T21:18:41.782Z,48
2022-10-05T21:24:23.280Z,48
2022-10-05T21:30:03.347Z,52
2022-10-05T21:35:47.956Z,56
2022-10-05T21:41:27.818Z,60
2022-10-05T21:47:08.001Z,56
2022-10-05T21:52:48.386Z,42
2022-10-05T21:58:30.808Z,56
2022-10-05T22:04:12.072Z,52
2022-10-05T22:09:55.049Z,48
2022-10-05T22:15:35.585Z,46
2022-10-05T22:21:16.055Z,58
2022-10-05T22:26:56.400Z,56
2022-10-05T22:32:36.825Z,48
2022-10-05T22:38:20.020Z,54
2022-10-05T22:44:00.314Z,50
2022-10-05T22:49:40.491Z,54
2022-10-05T22:55:20.835Z,56
2022-10-05T23:01:01.408Z,54
2022-10-05T23:06:42.032Z,56
2022-10-05T23:12:22.146Z,52
2022-10-05T23:18:02.248Z,46
2022-10-05T23:23:45.491Z,56
2022-10-05T23:29:26.029Z,58
2022-10-05T23:35:06.357Z,44
2022-10-05T23:40:47.449Z,54
2022-10-05T23:46:30.463Z,54
2022-10-05T23:52:11.055Z,46
2022-10-05T23:57:51.678Z,46
